Time;durP1;ratioP1;P1;durP2;ratioP2;P2;SDS_P1;SDS_P2;PMS_P1;PMS_P2;Temp;Humidity;BMP_temperature;BMP_pressure;BME280_temperature;BME280_humidity;BME280_pressure;Samples;Min_cycle;Max_cycle;Signal;HPM_P1;HPM_P2
2023/10/03 00:00:55;;;;;;;95.87;38.55;;;;;;;17.25;45.21;100607.11;1744979;82;21332;-80
2023/10/03 00:04:01;;;;;;;76.53;32.73;;;;;;;17.09;45.54;100609.78;1746328;82;21405;-80
2023/10/03 00:07:06;;;;;;;71.15;27.52;;;;;;;17.26;45.29;100607.96;1746215;82;21718;-81
2023/10/03 00:10:13;;;;;;;61.65;25.08;;;;;;;17.25;45.34;100603.50;1746369;82;21341;-81
2023/10/03 00:13:19;;;;;;;67.72;28.65;;;;;;;17.13;45.67;100610.22;1745109;82;21305;-80
2023/10/03 00:16:26;;;;;;;70.80;28.90;;;;;;;17.18;45.59;100608.20;1744969;82;21368;-81
2023/10/03 00:19:32;;;;;;;80.97;31.77;;;;;;;17.06;45.82;100612.95;1746865;82;21313;-81
2023/10/03 00:22:38;;;;;;;75.15;32.10;;;;;;;17.25;45.46;100613.17;1744858;82;21991;-81
2023/10/03 00:25:45;;;;;;;73.97;31.93;;;;;;;17.26;45.46;100613.48;1746325;82;21349;-81
2023/10/03 00:28:51;;;;;;;83.50;37.00;;;;;;;17.16;45.61;100614.45;1744335;82;21873;-81
2023/10/03 00:31:58;;;;;;;90.50;39.58;;;;;;;17.11;45.73;100620.61;1747123;82;21338;-81
2023/10/03 00:35:05;;;;;;;105.00;39.30;;;;;;;17.05;45.84;100625.08;1746707;82;21345;-81
2023/10/03 00:38:15;;;;;;;105.67;38.80;;;;;;;16.98;46.02;100617.30;1746426;82;21336;-81
2023/10/03 00:41:21;;;;;;;91.70;37.75;;;;;;;16.98;46.03;100623.36;1745417;82;21364;-81
2023/10/03 00:44:26;;;;;;;78.10;34.18;;;;;;;16.96;46.08;100623.58;1745133;82;21301;-81
2023/10/03 00:47:33;;;;;;;87.42;32.15;;;;;;;17.05;45.78;100612.64;1746213;82;21908;-81
2023/10/03 00:50:39;;;;;;;82.15;34.08;;;;;;;17.03;45.78;100624.95;1746420;82;21364;-81
2023/10/03 00:53:46;;;;;;;90.38;34.80;;;;;;;17.03;45.92;100617.55;1745236;82;21313;-81
2023/10/03 00:56:52;;;;;;;80.55;33.28;;;;;;;16.77;46.43;100617.49;1746400;82;21333;-81
2023/10/03 00:59:58;;;;;;;83.00;35.30;;;;;;;16.73;46.57;100626.72;1746549;82;21304;-81
2023/10/03 01:03:05;;;;;;;76.00;33.40;;;;;;;16.56;47.00;100633.14;1746684;82;21334;-81
2023/10/03 01:06:19;;;;;;;86.00;36.53;;;;;;;16.51;47.27;100637.55;1747245;82;21308;-81
2023/10/03 01:09:27;;;;;;;94.90;40.50;;;;;;;16.49;47.30;100639.16;1746899;82;21312;-81
2023/10/03 01:12:32;;;;;;;102.32;42.85;;;;;;;16.56;47.25;100633.14;1746924;82;21664;-81
2023/10/03 01:15:38;;;;;;;97.82;41.68;;;;;;;16.30;47.83;100630.27;1746621;82;21329;-81
2023/10/03 01:18:43;;;;;;;94.40;39.90;;;;;;;16.30;48.02;100640.78;1746324;82;21332;-81
2023/10/03 01:21:50;;;;;;;80.80;33.45;;;;;;;16.25;48.23;100643.30;1746447;82;21708;-81
2023/10/03 01:24:55;;;;;;;77.27;33.88;;;;;;;16.24;48.48;100647.66;1744855;82;21332;-80
2023/10/03 01:28:02;;;;;;;91.85;35.25;;;;;;;16.29;48.42;100645.13;1745988;82;21934;-80
2023/10/03 01:31:08;;;;;;;88.03;37.85;;;;;;;16.25;48.56;100643.84;1724012;83;21366;-80
2023/10/03 01:34:15;;;;;;;94.85;40.50;;;;;;;16.26;48.64;100641.39;1723619;83;21318;-80
2023/10/03 01:37:20;;;;;;;116.15;45.40;;;;;;;16.20;48.84;100646.36;1724982;83;21311;-82
2023/10/03 01:40:26;;;;;;;102.15;46.58;;;;;;;15.97;49.31;100637.01;1724976;83;21325;-80
2023/10/03 01:43:31;;;;;;;105.75;45.98;;;;;;;16.07;49.16;100642.47;1724901;83;21318;-81
2023/10/03 01:46:41;;;;;;;111.47;48.70;;;;;;;16.24;48.89;100638.00;1723759;83;21365;-81
2023/10/03 01:49:40;;;;;;;117.53;47.58;;;;;;;16.26;48.86;100645.00;1724794;83;22584;-80
2023/10/03 01:52:47;;;;;;;107.35;46.13;;;;;;;16.05;49.20;100651.49;1724737;83;21345;-80
2023/10/03 01:55:53;;;;;;;108.10;50.17;;;;;;;15.95;49.55;100656.53;1724592;83;21333;-80
2023/10/03 01:59:00;;;;;;;108.52;48.20;;;;;;;16.10;49.11;100657.25;1724625;83;21357;-80
2023/10/03 02:02:06;;;;;;;133.00;57.00;;;;;;;16.05;49.21;100658.39;1723296;83;21888;-80
2023/10/03 02:05:12;;;;;;;146.07;65.45;;;;;;;16.10;49.07;100660.54;1723613;83;21940;-80
2023/10/03 02:08:20;;;;;;;152.35;68.60;;;;;;;16.19;48.72;100657.94;1723683;83;21326;-80
2023/10/03 02:11:28;;;;;;;128.70;58.92;;;;;;;16.05;48.72;100658.39;1725133;83;21314;-80
2023/10/03 02:14:34;;;;;;;165.45;73.22;;;;;;;15.81;49.07;100658.36;1724393;83;22516;-80
2023/10/03 02:17:41;;;;;;;180.22;77.15;;;;;;;15.69;49.34;100660.48;1723736;83;21365;-80
2023/10/03 02:20:53;;;;;;;145.62;65.05;;;;;;;15.62;49.52;100652.14;1724754;83;21307;-80
2023/10/03 02:24:00;;;;;;;127.05;52.85;;;;;;;15.38;50.20;100656.70;1724732;83;21356;-80
2023/10/03 02:27:09;;;;;;;115.85;51.37;;;;;;;15.38;50.45;100656.17;1723870;83;21858;-80
2023/10/03 02:30:23;;;;;;;127.17;57.55;;;;;;;15.40;50.45;100659.60;1730306;82;21778;-80
2023/10/03 02:33:26;;;;;;;129.82;55.12;;;;;;;15.49;50.36;100661.16;1746898;82;21357;-80
2023/10/03 02:36:32;;;;;;;118.67;48.28;;;;;;;15.36;51.01;100659.66;1746124;82;21364;-80
2023/10/03 02:39:39;;;;;;;105.78;43.45;;;;;;;15.34;51.54;100656.27;1746011;82;21321;-80
2023/10/03 02:42:47;;;;;;;115.10;48.33;;;;;;;15.34;51.56;100654.89;1745757;82;21337;-80
2023/10/03 02:45:53;;;;;;;111.75;47.73;;;;;;;15.45;51.52;100665.36;1744651;82;21651;-80
2023/10/03 02:49:00;;;;;;;121.33;51.05;;;;;;;15.41;51.87;100659.06;1744720;82;21356;-80
2023/10/03 02:52:07;;;;;;;132.27;53.13;;;;;;;15.45;51.96;100664.52;1745780;82;21315;-80
2023/10/03 02:55:01;;;;;;;119.33;47.08;;;;;;;15.53;51.87;100661.09;1745100;82;22700;-80
2023/10/03 02:58:07;;;;;;;112.50;47.17;;;;;;;15.53;51.96;100667.98;1746120;82;22486;-80
2023/10/03 03:01:13;;;;;;;121.82;45.67;;;;;;;15.64;51.92;100664.37;1744262;82;21361;-80
2023/10/03 03:04:21;;;;;;;101.22;41.30;;;;;;;15.70;51.83;100661.66;1745176;82;21960;-80
2023/10/03 03:07:27;;;;;;;110.00;49.55;;;;;;;15.73;51.81;100663.17;1745657;82;21321;-80
2023/10/03 03:10:34;;;;;;;123.35;50.45;;;;;;;15.72;51.93;100666.45;1745557;82;21313;-80
2023/10/03 03:13:42;;;;;;;134.32;50.63;;;;;;;15.62;52.16;100665.94;1743915;82;21353;-80
2023/10/03 03:16:48;;;;;;;135.60;55.85;;;;;;;15.51;52.51;100670.06;1745498;82;21344;-80
2023/10/03 03:19:55;;;;;;;163.90;67.12;;;;;;;15.62;52.18;100675.58;1745580;82;21301;-80
2023/10/03 03:23:01;;;;;;;194.30;77.78;;;;;;;15.62;52.14;100681.59;1745772;82;21368;-80
2023/10/03 03:26:14;;;;;;;184.70;77.92;;;;;;;15.62;52.38;100676.96;1745176;82;22343;-80
2023/10/03 03:28:58;;;;;;;187.50;75.90;;;;;;;15.60;52.28;100684.56;1746049;82;21317;-80
2023/10/03 03:31:47;;;;;;;166.73;63.40;;;;;;;15.55;52.58;100684.31;1744292;82;21893;-80
2023/10/03 03:34:53;;;;;;;126.47;54.50;;;;;;;15.47;52.77;100692.19;1744696;82;21341;-80
2023/10/03 03:38:04;;;;;;;145.92;52.43;;;;;;;15.45;52.97;100686.03;1746220;82;21309;-79
2023/10/03 03:41:09;;;;;;;129.10;51.92;;;;;;;15.47;52.94;100688.05;1744717;82;21908;-79
2023/10/03 03:44:18;;;;;;;101.45;43.48;;;;;;;15.68;52.43;100684.45;1746363;82;21979;-80
2023/10/03 03:47:22;;;;;;;96.25;41.65;;;;;;;15.69;52.39;100693.05;1746364;82;21330;-80
2023/10/03 03:50:31;;;;;;;103.78;38.80;;;;;;;15.62;52.59;100688.48;1746037;82;21364;-80
2023/10/03 03:53:38;;;;;;;89.07;31.02;;;;;;;15.60;52.50;100695.06;1744981;82;21317;-80
2023/10/03 03:56:45;;;;;;;65.05;29.77;;;;;;;15.54;52.90;100698.63;1744877;81;21341;-80
2023/10/03 03:59:51;;;;;;;68.45;26.05;;;;;;;15.53;53.00;100690.04;1746590;82;21328;-80
2023/10/03 04:03:00;;;;;;;63.05;23.35;;;;;;;15.56;53.12;100692.38;1746438;82;21317;-80
2023/10/03 04:06:07;;;;;;;70.12;19.80;;;;;;;15.54;53.32;100698.63;1745383;82;21997;-80
2023/10/03 04:09:14;;;;;;;34.60;16.67;;;;;;;15.53;53.38;100697.45;1746148;82;21983;-80
2023/10/03 04:12:20;;;;;;;42.40;14.53;;;;;;;15.58;53.42;100703.23;1746050;82;21301;-80
2023/10/03 04:15:27;;;;;;;34.48;14.15;;;;;;;15.77;53.17;100700.33;1745910;82;21947;-80
2023/10/03 04:18:33;;;;;;;38.17;12.20;;;;;;;15.85;53.17;100702.91;1746025;82;21891;-80
2023/10/03 04:21:41;;;;;;;30.12;10.90;;;;;;;15.95;53.07;100702.55;1746055;82;21309;-80
2023/10/03 04:24:48;;;;;;;28.55;10.85;;;;;;;16.26;52.34;100700.20;1746022;82;21325;-79
2023/10/03 04:27:56;;;;;;;34.00;12.47;;;;;;;16.00;52.95;100711.95;1745784;82;21305;-80
2023/10/03 04:31:01;;;;;;;33.55;13.00;;;;;;;15.87;53.42;100706.87;1746613;82;21328;-79
2023/10/03 04:34:11;;;;;;;29.70;12.28;;;;;;;15.77;53.71;100714.97;1729445;82;21361;-80
2023/10/03 04:37:16;;;;;;;36.17;13.38;;;;;;;16.01;53.24;100714.18;1731271;82;21864;-80
2023/10/03 04:40:27;;;;;;;36.33;12.68;;;;;;;16.05;53.13;100714.11;1732800;82;21325;-81
2023/10/03 04:43:31;;;;;;;21.75;9.95;;;;;;;16.19;52.97;100720.03;1733998;81;21328;-80
2023/10/03 04:46:37;;;;;;;26.23;11.28;;;;;;;16.34;52.64;100720.75;1730182;81;22653;-80
2023/10/03 04:49:44;;;;;;;26.65;9.83;;;;;;;16.39;52.56;100724.80;1730489;82;22608;-80
2023/10/03 04:52:50;;;;;;;20.85;9.45;;;;;;;16.38;52.44;100721.20;1730939;82;21313;-80
2023/10/03 04:55:56;;;;;;;26.60;10.75;;;;;;;16.52;52.21;100729.88;1731005;82;21389;-80
2023/10/03 04:59:03;;;;;;;25.00;11.10;;;;;;;16.49;52.30;100736.33;1731124;82;21314;-80
2023/10/03 05:02:03;;;;;;;32.80;10.13;;;;;;;16.38;52.60;100739.14;1734778;82;21335;-80
2023/10/03 05:05:10;;;;;;;25.10;10.38;;;;;;;16.55;52.28;100743.25;1731826;82;21349;-80
2023/10/03 05:08:18;;;;;;;22.37;10.08;;;;;;;16.69;51.94;100745.55;1724033;82;21330;-80
2023/10/03 05:11:24;;;;;;;23.25;9.28;;;;;;;16.81;51.58;100745.85;1719317;82;21323;-80
2023/10/03 05:14:30;;;;;;;27.30;9.35;;;;;;;16.86;51.62;100747.47;1729563;82;21334;-81
2023/10/03 05:17:38;;;;;;;28.00;8.20;;;;;;;16.90;51.60;100749.29;1729671;82;21354;-80
2023/10/03 05:20:46;;;;;;;16.73;7.62;;;;;;;17.09;51.08;100742.44;1734938;82;21350;-81
2023/10/03 05:23:53;;;;;;;20.52;8.00;;;;;;;17.24;50.88;100756.61;1728358;82;21176;-81
2023/10/03 05:26:59;;;;;;;21.30;7.95;;;;;;;17.28;50.70;100764.81;1715965;81;21231;-80
2023/10/03 05:30:08;;;;;;;17.55;7.85;;;;;;;17.25;50.62;100775.73;1714650;82;21302;-80
2023/10/03 05:33:15;;;;;;;24.92;7.40;;;;;;;17.28;50.71;100775.87;1722503;81;21324;-80
2023/10/03 05:36:22;;;;;;;17.05;7.03;;;;;;;17.46;50.25;100780.80;1722948;82;21291;-81
2023/10/03 05:39:28;;;;;;;16.27;6.92;;;;;;;17.47;50.00;100792.18;1721674;82;21874;-80
2023/10/03 05:42:33;;;;;;;18.17;6.92;;;;;;;17.55;49.95;100782.28;1719733;83;21892;-81
2023/10/03 05:45:42;;;;;;;18.52;6.70;;;;;;;17.83;49.23;100795.95;1718687;83;21310;-81
2023/10/03 05:48:51;;;;;;;14.58;5.72;;;;;;;17.93;48.90;100787.27;1705322;82;21320;-82
2023/10/03 05:51:59;;;;;;;;;;;;;;;18.05;48.62;100798.84;1722525;82;21352;-81
2023/10/03 05:55:06;;;;;;;14.73;6.15;;;;;;;18.14;48.40;100796.17;1707979;83;20285;-80
2023/10/03 05:58:12;;;;;;;14.95;4.90;;;;;;;18.24;48.41;100787.97;1713457;82;21342;-80
2023/10/03 06:01:18;;;;;;;16.65;5.75;;;;;;;18.34;48.12;100789.22;1714092;79;29259;-80
2023/10/03 06:04:25;;;;;;;9.85;5.08;;;;;;;18.39;47.59;100802.42;1697208;83;21366;-81
2023/10/03 06:07:31;;;;;;;13.45;4.80;;;;;;;18.55;47.31;100797.82;1706398;83;21219;-81
2023/10/03 06:10:37;;;;;;;10.85;5.25;;;;;;;18.76;46.75;100804.18;1708579;82;21911;-80
2023/10/03 06:13:44;;;;;;;19.87;5.17;;;;;;;18.86;46.35;100799.87;1710023;83;21319;-79
2023/10/03 06:16:49;;;;;;;12.53;4.90;;;;;;;18.98;46.01;100802.83;1712598;83;21323;-80
2023/10/03 06:19:55;;;;;;;9.35;4.80;;;;;;;19.29;45.23;100805.33;1704010;82;21330;-81
2023/10/03 06:23:04;;;;;;;9.58;4.85;;;;;;;19.27;44.98;100817.19;1708370;82;21320;-81
2023/10/03 06:26:10;;;;;;;12.07;4.90;;;;;;;19.35;45.06;100812.78;1702231;82;21338;-81
2023/10/03 06:29:15;;;;;;;12.30;5.58;;;;;;;19.52;44.38;100820.03;1705741;82;21283;-81
2023/10/03 06:32:21;;;;;;;11.22;4.53;;;;;;;19.62;44.02;100824.07;1683380;84;21943;-81
2023/10/03 06:35:27;;;;;;;11.97;4.55;;;;;;;19.74;43.51;100833.91;1691411;83;21306;-81
2023/10/03 06:38:33;;;;;;;9.88;4.72;;;;;;;19.77;42.97;100828.45;1683094;83;21331;-81
2023/10/03 06:41:55;;;;;;;12.65;4.70;;;;;;;19.71;42.83;100830.72;1690994;83;21333;-81
2023/10/03 06:45:00;;;;;;;8.70;4.45;;;;;;;19.94;42.55;100844.86;1689007;83;22011;-80
2023/10/03 06:48:07;;;;;;;11.93;4.83;;;;;;;19.96;42.23;100844.66;1692314;83;21803;-80
2023/10/03 06:51:09;;;;;;;9.35;4.37;;;;;;;20.10;41.62;100851.80;1694087;83;21340;-81
2023/10/03 06:54:03;;;;;;;14.55;5.03;;;;;;;20.12;41.83;100850.48;1699855;83;21323;-81
2023/10/03 06:57:12;;;;;;;21.60;5.17;;;;;;;20.38;41.17;100859.69;1698504;83;21239;-81
2023/10/03 07:00:22;;;;;;;12.28;4.97;;;;;;;20.68;39.96;100856.52;1696590;83;21961;-81
2023/10/03 07:03:32;;;;;;;14.45;5.40;;;;;;;20.64;39.39;100865.55;1694958;83;21330;-82
2023/10/03 07:06:39;;;;;;;10.70;5.10;;;;;;;20.82;38.86;100853.60;1698494;83;21308;-81
2023/10/03 07:09:45;;;;;;;17.20;6.00;;;;;;;20.86;38.91;100868.75;1705976;83;21354;-81
2023/10/03 07:12:51;;;;;;;9.98;4.75;;;;;;;20.79;38.86;100873.52;1704309;83;21353;-81
2023/10/03 07:16:06;;;;;;;17.57;5.22;;;;;;;20.73;38.75;100863.32;1691473;83;21207;-81
2023/10/03 07:19:13;;;;;;;15.85;4.83;;;;;;;20.78;38.95;100871.27;1693014;83;21338;-80
2023/10/03 07:22:19;;;;;;;14.00;5.60;;;;;;;20.95;38.41;100867.91;1682652;83;21338;-81
2023/10/03 07:25:25;;;;;;;12.30;4.47;;;;;;;21.08;37.42;100870.54;1672574;85;21339;-82
2023/10/03 07:28:31;;;;;;;9.55;4.42;;;;;;;20.85;37.50;100863.73;1677281;85;21204;-81
2023/10/03 07:31:38;;;;;;;14.75;3.62;;;;;;;20.97;37.15;100881.88;1680696;85;21331;-81
2023/10/03 07:34:46;;;;;;;18.17;4.45;;;;;;;20.98;36.49;100868.81;1675459;85;22320;-80
2023/10/03 07:37:57;;;;;;;12.05;4.10;;;;;;;20.89;36.99;100873.31;1662541;85;21330;-81
2023/10/03 07:41:02;;;;;;;7.00;3.58;;;;;;;21.05;37.17;100871.84;1632559;87;21865;-81
2023/10/03 07:44:07;;;;;;;10.78;3.80;;;;;;;21.13;37.29;100879.03;1656805;85;21226;-80
2023/10/03 07:47:15;;;;;;;12.73;4.00;;;;;;;21.13;37.24;100885.44;1631368;87;21207;-81
2023/10/03 07:50:21;;;;;;;11.80;2.98;;;;;;;21.33;36.92;100882.44;1670337;85;22504;-81
2023/10/03 07:53:29;;;;;;;9.75;3.40;;;;;;;21.53;36.61;100880.78;1665164;84;21234;-82
2023/10/03 07:56:48;;;;;;;6.53;3.12;;;;;;;21.56;36.54;100868.34;1676325;84;21642;-81
2023/10/03 07:59:55;;;;;;;5.47;2.87;;;;;;;21.57;36.58;100883.41;1678292;85;22478;-81
2023/10/03 08:03:08;;;;;;;10.58;3.17;;;;;;;21.83;36.34;100869.67;1678339;85;21310;-80
2023/10/03 08:06:14;;;;;;;12.20;3.33;;;;;;;21.69;36.16;100879.30;1631808;87;21208;-81
2023/10/03 08:09:24;;;;;;;6.70;3.00;;;;;;;21.62;36.20;100885.48;1674146;84;21210;-81
2023/10/03 08:12:32;;;;;;;14.20;4.03;;;;;;;21.57;36.34;100897.87;1665777;84;21274;-81
2023/10/03 08:15:38;;;;;;;19.37;3.42;;;;;;;21.72;35.81;100895.52;1660641;84;21345;-81
2023/10/03 08:18:46;;;;;;;10.20;3.10;;;;;;;21.72;35.81;100886.31;1664597;86;21352;-80
2023/10/03 08:21:52;;;;;;;8.83;3.15;;;;;;;21.78;35.52;100895.11;1668754;84;21344;-81
2023/10/03 08:25:00;;;;;;;9.13;3.17;;;;;;;22.02;35.19;100896.03;1634553;87;22130;-81
2023/10/03 08:28:09;;;;;;;7.00;3.10;;;;;;;21.94;33.89;100886.95;1670916;84;22433;-81
2023/10/03 08:31:14;;;;;;;7.97;3.02;;;;;;;22.02;34.02;100885.77;1673785;84;21342;-82
2023/10/03 08:34:22;;;;;;;7.97;3.30;;;;;;;22.12;33.74;100887.45;1632931;86;21517;-82
2023/10/03 08:37:27;;;;;;;12.88;3.90;;;;;;;21.95;33.93;100885.85;1676246;83;21252;-81
2023/10/03 08:40:32;;;;;;;8.70;3.55;;;;;;;22.07;33.17;100891.47;1693345;83;21908;-81
2023/10/03 08:43:38;;;;;;;10.30;3.42;;;;;;;22.15;32.96;100881.94;1686690;83;21239;-81
2023/10/03 08:46:45;;;;;;;5.95;3.45;;;;;;;21.78;33.48;100878.40;1690315;83;21227;-80
2023/10/03 08:49:56;;;;;;;11.30;3.33;;;;;;;21.86;33.38;100888.66;1642837;86;21225;-80
2023/10/03 08:53:12;;;;;;;11.08;3.22;;;;;;;21.92;32.93;100884.95;1666945;85;21831;-81
2023/10/03 08:56:08;;;;;;;9.68;3.50;;;;;;;22.12;32.87;100874.08;1690403;83;21276;-81
2023/10/03 08:59:21;;;;;;;6.47;3.52;;;;;;;22.17;32.59;100879.78;1687781;83;21212;-81
2023/10/03 09:02:24;;;;;;;8.43;3.85;;;;;;;22.18;32.23;100881.47;1689104;83;21313;-80
2023/10/03 09:05:33;;;;;;;15.93;4.30;;;;;;;22.19;32.30;100864.50;1697077;83;21341;-80
2023/10/03 09:08:43;;;;;;;11.00;4.75;;;;;;;22.19;32.43;100874.25;1697393;83;21241;-81
2023/10/03 09:11:51;;;;;;;10.88;4.85;;;;;;;22.14;32.08;100883.03;1689404;83;21206;-81
2023/10/03 09:14:57;;;;;;;14.30;4.72;;;;;;;22.24;31.74;100872.69;1686636;83;21924;-82
2023/10/03 09:18:03;;;;;;;11.85;5.05;;;;;;;22.25;32.29;100878.02;1678999;83;22061;-80
2023/10/03 09:21:16;;;;;;;12.80;5.80;;;;;;;22.38;32.53;100875.55;1692268;83;21886;-80
2023/10/03 09:24:22;;;;;;;13.50;5.60;;;;;;;22.48;31.82;100866.05;1672086;85;21279;-80
2023/10/03 09:27:34;;;;;;;15.25;5.90;;;;;;;22.46;32.02;100872.42;1651807;85;21233;-79
2023/10/03 09:30:40;;;;;;;13.40;5.60;;;;;;;22.40;32.06;100874.23;1680998;85;21929;-80
2023/10/03 09:33:47;;;;;;;24.63;5.87;;;;;;;22.33;32.16;100867.07;1685837;85;21247;-80
2023/10/03 09:36:54;;;;;;;17.20;5.15;;;;;;;22.29;32.08;100865.84;1689979;83;21331;-80
2023/10/03 09:40:01;;;;;;;23.52;6.42;;;;;;;22.37;32.47;100869.14;1665439;85;21693;-81
2023/10/03 09:43:16;;;;;;;18.98;6.55;;;;;;;22.40;32.21;100865.03;1636656;85;21240;-81
2023/10/03 09:46:14;;;;;;;14.30;6.35;;;;;;;22.54;32.51;100864.26;1670722;85;21317;-81
2023/10/03 09:49:10;;;;;;;12.37;6.65;;;;;;;22.63;32.38;100870.62;1657346;86;21303;-80
2023/10/03 09:52:27;;;;;;;18.32;6.92;;;;;;;22.68;32.31;100866.55;1671357;85;21339;-80
2023/10/03 09:55:46;;;;;;;16.57;6.42;;;;;;;22.62;32.15;100849.38;1695823;83;21294;-81
2023/10/03 09:58:54;;;;;;;20.25;6.67;;;;;;;22.58;32.46;100857.92;1678700;84;21339;-81
2023/10/03 10:02:12;;;;;;;17.00;7.22;;;;;;;22.64;32.56;100856.98;1702885;83;21394;-84
2023/10/03 10:05:28;;;;;;;20.08;6.58;;;;;;;22.56;32.07;100852.30;1699147;83;21358;-84
2023/10/03 10:08:47;;;;;;;13.93;6.17;;;;;;;22.79;32.31;100864.84;1702040;83;21593;-81
2023/10/03 10:12:21;;;;;;;24.32;6.47;;;;;;;22.84;32.10;100856.59;1645693;86;21350;-82
2023/10/03 10:15:31;;;;;;;17.35;5.65;;;;;;;22.75;32.26;100842.72;1639153;86;22285;-80
2023/10/03 10:19:00;;;;;;;12.82;5.58;;;;;;;22.96;32.11;100852.44;1685835;83;21196;-80
2023/10/03 10:22:11;;;;;;;13.32;6.15;;;;;;;23.00;31.53;100841.62;1673068;84;21365;-80
2023/10/03 10:25:42;;;;;;;15.35;5.55;;;;;;;22.96;31.35;100845.47;1670097;84;21349;-80
2023/10/03 10:28:48;;;;;;;10.65;5.33;;;;;;;23.03;31.27;100839.19;1702017;83;21232;-80
2023/10/03 10:31:58;;;;;;;11.45;4.87;;;;;;;23.09;30.82;100836.80;1689364;83;21210;-80
2023/10/03 10:35:04;;;;;;;12.93;5.37;;;;;;;23.17;30.79;100839.77;1693643;83;21244;-81
2023/10/03 10:38:12;;;;;;;18.70;5.62;;;;;;;23.25;30.20;100832.41;1697392;83;21924;-80
2023/10/03 10:41:27;;;;;;;22.77;5.65;;;;;;;23.25;30.00;100841.33;1702693;83;21890;-81
2023/10/03 10:44:33;;;;;;;15.40;6.15;;;;;;;23.27;29.73;100840.52;1697223;83;21330;-79
2023/10/03 10:47:50;;;;;;;16.50;5.60;;;;;;;23.40;29.79;100840.24;1695227;83;21659;-80
2023/10/03 10:51:13;;;;;;;13.00;5.08;;;;;;;23.46;29.90;100837.84;1687749;83;21210;-80
2023/10/03 10:54:19;;;;;;;19.07;5.78;;;;;;;23.60;30.08;100826.67;1695786;83;21187;-81
2023/10/03 10:57:18;;;;;;;19.55;5.83;;;;;;;23.55;30.03;100836.35;1679177;83;21306;-81
2023/10/03 11:00:23;;;;;;;21.27;5.62;;;;;;;23.69;29.95;100829.95;1682803;85;21345;-80
2023/10/03 11:03:33;;;;;;;10.70;5.33;;;;;;;23.65;29.88;100825.41;1675916;85;22399;-81
2023/10/03 11:06:44;;;;;;;10.95;5.53;;;;;;;23.64;29.49;100826.51;1685283;85;22013;-81
2023/10/03 11:09:50;;;;;;;15.72;5.45;;;;;;;23.70;28.84;100833.87;1678820;85;21283;-81
2023/10/03 11:13:04;;;;;;;26.52;6.25;;;;;;;23.73;28.83;100819.13;1684475;85;22289;-80
2023/10/03 11:16:11;;;;;;;16.57;5.30;;;;;;;23.75;28.95;100826.69;1681573;85;21235;-80
2023/10/03 11:19:18;;;;;;;13.40;4.65;;;;;;;23.87;28.79;100820.50;1685478;85;21307;-82
2023/10/03 11:22:26;;;;;;;13.80;4.83;;;;;;;23.94;28.88;100822.57;1673356;85;21335;-82
2023/10/03 11:25:33;;;;;;;17.23;5.58;;;;;;;23.95;28.03;100822.89;1685570;85;22144;-81
2023/10/03 11:28:44;;;;;;;14.63;5.10;;;;;;;24.03;28.02;100812.67;1674720;85;21346;-81
2023/10/03 11:31:51;;;;;;;11.65;4.67;;;;;;;23.93;27.99;100819.48;1674677;85;21557;-81
2023/10/03 11:34:59;;;;;;;15.28;4.78;;;;;;;23.88;28.48;100821.64;1685310;85;21294;-81
2023/10/03 11:38:13;;;;;;;16.52;4.97;;;;;;;23.88;28.24;100824.44;1681675;85;21342;-80
2023/10/03 11:41:18;;;;;;;14.00;5.33;;;;;;;24.02;28.20;100823.56;1683665;84;22115;-80
2023/10/03 11:44:29;;;;;;;23.62;6.22;;;;;;;24.03;28.07;100828.59;1679348;85;21333;-80
2023/10/03 11:47:36;;;;;;;15.00;5.47;;;;;;;24.04;27.77;100823.30;1679641;85;21263;-80
2023/10/03 11:50:43;;;;;;;17.73;5.87;;;;;;;24.08;27.99;100816.11;1663747;85;21572;-80
2023/10/03 11:53:50;;;;;;;10.13;4.80;;;;;;;24.07;27.96;100817.21;1666658;85;21420;-80
2023/10/03 11:56:57;;;;;;;13.30;5.08;;;;;;;23.94;28.22;100816.98;1676677;85;22559;-81
2023/10/03 12:00:14;;;;;;;16.62;6.15;;;;;;;23.87;28.32;100807.94;1681805;85;21330;-80
2023/10/03 12:03:15;;;;;;;21.93;7.03;;;;;;;23.83;28.33;100813.17;1672437;85;21347;-80
2023/10/03 12:06:23;;;;;;;15.80;5.70;;;;;;;23.79;28.01;100811.13;1679366;85;21385;-80
2023/10/03 12:09:30;;;;;;;18.60;6.53;;;;;;;23.89;28.16;100815.50;1674873;85;21775;-80
2023/10/03 12:12:37;;;;;;;21.60;7.42;;;;;;;23.92;27.99;100812.21;1679260;85;22255;-80
2023/10/03 12:15:46;;;;;;;15.72;6.80;;;;;;;23.99;27.80;100804.50;1681421;85;21283;-81
2023/10/03 12:18:50;;;;;;;22.00;6.85;;;;;;;23.94;27.98;100811.39;1680872;85;21279;-81
2023/10/03 12:21:56;;;;;;;27.90;7.35;;;;;;;23.79;28.34;100808.34;1660989;86;21306;-81
2023/10/03 12:25:01;;;;;;;18.30;7.33;;;;;;;23.76;28.17;100804.64;1668721;85;21225;-81
2023/10/03 12:28:10;;;;;;;20.20;7.40;;;;;;;23.71;28.18;100803.48;1678490;85;21893;-81
2023/10/03 12:31:17;;;;;;;18.80;7.62;;;;;;;23.77;28.30;100809.16;1679146;85;21656;-80
2023/10/03 12:34:25;;;;;;;22.75;7.75;;;;;;;23.74;28.51;100804.91;1679565;85;21217;-80
2023/10/03 12:37:29;;;;;;;18.02;7.70;;;;;;;23.79;28.50;100796.61;1679579;85;22260;-80
2023/10/03 12:40:35;;;;;;;15.70;6.85;;;;;;;23.76;28.56;100798.53;1667670;85;21419;-81
2023/10/03 12:43:46;;;;;;;21.50;7.62;;;;;;;23.85;28.84;100794.20;1672675;85;21992;-81
2023/10/03 12:46:49;;;;;;;17.42;7.37;;;;;;;23.78;28.80;100803.30;1678714;85;21286;-80
2023/10/03 12:49:55;;;;;;;17.37;7.12;;;;;;;23.66;28.68;100799.72;1668286;85;21180;-81
2023/10/03 12:53:10;;;;;;;19.75;7.72;;;;;;;23.48;28.80;100806.36;1681345;85;21216;-81
2023/10/03 12:56:14;;;;;;;24.00;7.70;;;;;;;23.69;28.82;100804.26;1681635;85;21362;-81
2023/10/03 12:59:19;;;;;;;19.42;7.58;;;;;;;23.74;28.95;100804.06;1658428;86;21376;-81
2023/10/03 13:02:29;;;;;;;23.47;8.73;;;;;;;23.91;28.94;100798.80;1659964;86;21984;-81
2023/10/03 13:05:35;;;;;;;23.80;8.28;;;;;;;23.90;28.36;100803.22;1638638;86;21928;-81
2023/10/03 13:08:45;;;;;;;16.32;7.00;;;;;;;23.94;28.34;100805.81;1661629;86;21349;-81
2023/10/03 13:11:48;;;;;;;14.78;6.60;;;;;;;23.91;28.55;100800.75;1660720;86;21329;-81
2023/10/03 13:14:55;;;;;;;21.57;7.20;;;;;;;23.99;29.05;100790.53;1681327;85;21362;-81
2023/10/03 13:18:03;;;;;;;17.02;6.95;;;;;;;23.85;29.21;100796.15;1661900;86;21413;-81
2023/10/03 13:21:10;;;;;;;19.12;7.87;;;;;;;23.75;29.40;100803.80;1662725;86;21979;-81
2023/10/03 13:24:19;;;;;;;19.70;7.80;;;;;;;23.71;29.42;100802.60;1653196;86;21310;-81
2023/10/03 13:27:23;;;;;;;23.02;8.13;;;;;;;23.69;29.11;100813.19;1650450;87;21318;-81
2023/10/03 13:30:30;;;;;;;20.57;8.08;;;;;;;23.78;29.06;100806.09;1666793;85;22338;-81
2023/10/03 13:33:36;;;;;;;26.10;8.75;;;;;;;23.82;29.03;100805.05;1661120;86;21364;-81
2023/10/03 13:36:43;;;;;;;18.25;7.62;;;;;;;23.91;28.69;100803.55;1661321;86;21350;-81
2023/10/03 13:39:48;;;;;;;19.37;7.55;;;;;;;23.80;28.82;100808.08;1656237;86;21361;-81
2023/10/03 13:42:54;;;;;;;21.37;7.78;;;;;;;23.74;28.76;100809.64;1655015;85;21357;-81
2023/10/03 13:46:01;;;;;;;31.00;9.78;;;;;;;23.68;28.80;100801.17;1630687;87;21219;-80
2023/10/03 13:49:06;;;;;;;18.48;8.20;;;;;;;23.52;28.93;100812.27;1648117;86;21869;-80
2023/10/03 13:52:13;;;;;;;17.60;8.08;;;;;;;23.46;28.88;100805.73;1682200;85;21323;-80
2023/10/03 13:55:23;;;;;;;17.65;7.00;;;;;;;23.40;28.90;100810.38;1638075;87;21257;-80
2023/10/03 13:58:31;;;;;;;17.95;7.40;;;;;;;23.66;28.72;100814.52;1615871;87;21343;-81
2023/10/03 14:01:37;;;;;;;22.58;8.08;;;;;;;23.53;29.12;100813.43;1677822;85;21921;-81
2023/10/03 14:04:43;;;;;;;25.30;8.33;;;;;;;23.33;29.30;100813.01;1678604;85;21374;-81
2023/10/03 14:07:50;;;;;;;18.50;8.40;;;;;;;23.28;29.39;100808.72;1679335;85;21306;-81
2023/10/03 14:10:56;;;;;;;24.98;7.83;;;;;;;23.35;29.28;100816.42;1678061;85;21319;-81
2023/10/03 14:14:03;;;;;;;22.07;7.58;;;;;;;23.34;29.27;100815.57;1676986;85;21256;-81
2023/10/03 14:17:10;;;;;;;24.72;9.18;;;;;;;23.27;29.49;100823.78;1672067;85;21319;-81